sensor_id;sensor_type;location;lat;lon;timestamp;pressure;altitude;pressure_sealevel;temperature;humidity
22930;BME280;11630;42.660;23.292;2023-05-11T00:02:06;68725.55;;;10.81;100.00
22930;BME280;11630;42.660;23.292;2023-05-11T00:04:38;68691.56;;;10.52;100.00
22930;BME280;11630;42.660;23.292;2023-05-11T00:07:08;68697.25;;;10.51;100.00
22930;BME280;11630;42.660;23.292;2023-05-11T00:09:38;68709.53;;;10.68;100.00
22930;BME280;11630;42.660;23.292;2023-05-11T00:12:09;68713.31;;;10.67;100.00
22930;BME280;11630;42.660;23.292;2023-05-11T00:14:39;68713.86;;;10.70;100.00
22930;BME280;11630;42.660;23.292;2023-05-11T00:17:10;68675.24;;;10.37;100.00
22930;BME280;11630;42.660;23.292;2023-05-11T00:19:41;68676.63;;;10.42;100.00
22930;BME280;11630;42.660;23.292;2023-05-11T00:22:11;68656.22;;;10.19;100.00
22930;BME280;11630;42.660;23.292;2023-05-11T00:24:42;68661.38;;;10.23;100.00
22930;BME280;11630;42.660;23.292;2023-05-11T00:27:13;68673.34;;;10.34;100.00
22930;BME280;11630;42.660;23.292;2023-05-11T00:29:44;68690.76;;;10.50;100.00
22930;BME280;11630;42.660;23.292;2023-05-11T00:32:17;68679.31;;;10.37;100.00
22930;BME280;11630;42.660;23.292;2023-05-11T00:34:48;68680.41;;;10.40;100.00
22930;BME280;11630;42.660;23.292;2023-05-11T00:37:19;68674.97;;;10.35;100.00
22930;BME280;11630;42.660;23.292;2023-05-11T00:39:50;68685.83;;;10.40;100.00
22930;BME280;11630;42.660;23.292;2023-05-11T00:42:21;68683.41;;;10.44;100.00
22930;BME280;11630;42.660;23.292;2023-05-11T00:44:52;68673.34;;;10.34;100.00
22930;BME280;11630;42.660;23.292;2023-05-11T00:47:23;68676.59;;;10.32;100.00
22930;BME280;11630;42.660;23.292;2023-05-11T00:49:53;68674.44;;;10.35;100.00
22930;BME280;11630;42.660;23.292;2023-05-11T00:52:24;68661.38;;;10.23;100.00
22930;BME280;11630;42.660;23.292;2023-05-11T00:54:56;68666.00;;;10.26;100.00
22930;BME280;11630;42.660;23.292;2023-05-11T00:57:27;68647.24;;;10.10;100.00
22930;BME280;11630;42.660;23.292;2023-05-11T01:00:00;68660.84;;;10.22;100.00
22930;BME280;11630;42.660;23.292;2023-05-11T01:02:29;68663.55;;;10.25;100.00
22930;BME280;11630;42.660;23.292;2023-05-11T01:05:00;68646.42;;;10.08;100.00
22930;BME280;11630;42.660;23.292;2023-05-11T01:07:44;68640.19;;;10.06;100.00
22930;BME280;11630;42.660;23.292;2023-05-11T01:10:32;68634.71;;;9.96;100.00
22930;BME280;11630;42.660;23.292;2023-05-11T01:13:12;68635.56;;;10.00;100.00
22930;BME280;11630;42.660;23.292;2023-05-11T01:15:45;68635.80;;;9.97;100.00
22930;BME280;11630;42.660;23.292;2023-05-11T01:18:19;68648.88;;;10.14;100.00
22930;BME280;11630;42.660;23.292;2023-05-11T01:20:52;68654.30;;;10.14;100.00
22930;BME280;11630;42.660;23.292;2023-05-11T01:29:00;68635.00;;;9.97;100.00
22930;BME280;11630;42.660;23.292;2023-05-11T01:31:29;68650.23;;;10.14;100.00
22930;BME280;11630;42.660;23.292;2023-05-11T01:34:11;68617.32;;;9.85;100.00
22930;BME280;11630;42.660;23.292;2023-05-11T01:36:38;68634.20;;;10.00;100.00
22930;BME280;11630;42.660;23.292;2023-05-11T01:39:09;68621.41;;;9.88;100.00
22930;BME280;11630;42.660;23.292;2023-05-11T01:41:41;68645.33;;;10.07;100.00
22930;BME280;11630;42.660;23.292;2023-05-11T01:44:14;68621.67;;;9.84;100.00
22930;BME280;11630;42.660;23.292;2023-05-11T01:46:47;68629.82;;;9.94;100.00
22930;BME280;11630;42.660;23.292;2023-05-11T01:49:22;68621.95;;;9.88;100.00
22930;BME280;11630;42.660;23.292;2023-05-11T01:51:54;68628.19;;;9.90;100.00
22930;BME280;11630;42.660;23.292;2023-05-11T01:54:25;68634.20;;;10.03;100.00
22930;BME280;11630;42.660;23.292;2023-05-11T01:56:58;68636.36;;;10.00;100.00
22930;BME280;11630;42.660;23.292;2023-05-11T01:59:30;68624.66;;;9.91;100.00
22930;BME280;11630;42.660;23.292;2023-05-11T02:02:02;68631.73;;;9.97;100.00
22930;BME280;11630;42.660;23.292;2023-05-11T02:04:35;68639.08;;;10.00;100.00
22930;BME280;11630;42.660;23.292;2023-05-11T02:07:07;68645.33;;;10.04;100.00
22930;BME280;11630;42.660;23.292;2023-05-11T02:09:39;68650.78;;;10.12;100.00
22930;BME280;11630;42.660;23.292;2023-05-11T02:12:13;68652.67;;;10.12;100.00
22930;BME280;11630;42.660;23.292;2023-05-11T02:14:45;68652.41;;;10.16;100.00
22930;BME280;11630;42.660;23.292;2023-05-11T02:17:18;68657.30;;;10.20;100.00
22930;BME280;11630;42.660;23.292;2023-05-11T02:19:49;68668.45;;;10.27;100.00
22930;BME280;11630;42.660;23.292;2023-05-11T02:22:21;68647.77;;;10.05;100.00
22930;BME280;11630;42.660;23.292;2023-05-11T02:24:52;68653.77;;;10.16;100.00
22930;BME280;11630;42.660;23.292;2023-05-11T02:27:23;68643.44;;;10.06;100.00
22930;BME280;11630;42.660;23.292;2023-05-11T02:29:55;68656.74;;;10.15;100.00
22930;BME280;11630;42.660;23.292;2023-05-11T02:32:26;68638.02;;;10.04;100.00
22930;BME280;11630;42.660;23.292;2023-05-11T02:35:06;68650.78;;;10.12;100.00
22930;BME280;11630;42.660;23.292;2023-05-11T02:37:38;68618.41;;;9.84;100.00
22930;BME280;11630;42.660;23.292;2023-05-11T02:40:18;68625.48;;;9.90;100.00
22930;BME280;11630;42.660;23.292;2023-05-11T02:42:52;68631.45;;;9.95;100.00
22930;BME280;11630;42.660;23.292;2023-05-11T02:45:23;68638.81;;;10.01;100.00
22930;BME280;11630;42.660;23.292;2023-05-11T02:47:55;68633.65;;;10.00;100.00
22930;BME280;11630;42.660;23.292;2023-05-11T02:50:29;68630.91;;;9.95;100.00
22930;BME280;11630;42.660;23.292;2023-05-11T02:53:02;68615.16;;;9.83;100.00
22930;BME280;11630;42.660;23.292;2023-05-11T02:55:32;68584.17;;;9.52;100.00
22930;BME280;11630;42.660;23.292;2023-05-11T02:58:03;68583.35;;;9.55;100.00
22930;BME280;11630;42.660;23.292;2023-05-11T03:00:34;68585.00;;;9.54;100.00
22930;BME280;11630;42.660;23.292;2023-05-11T03:03:04;68583.34;;;9.50;100.00
22930;BME280;11630;42.660;23.292;2023-05-11T03:05:35;68582.81;;;9.47;100.00
22930;BME280;11630;42.660;23.292;2023-05-11T03:08:07;68611.63;;;9.81;100.00
22930;BME280;11630;42.660;23.292;2023-05-11T03:10:39;68592.05;;;9.61;100.00
22930;BME280;11630;42.660;23.292;2023-05-11T03:13:10;68585.27;;;9.53;100.00
22930;BME280;11630;42.660;23.292;2023-05-11T03:15:41;68575.73;;;9.43;100.00
22930;BME280;11630;42.660;23.292;2023-05-11T03:18:13;68589.89;;;9.61;100.00
22930;BME280;11630;42.660;23.292;2023-05-11T03:20:47;68571.41;;;9.39;100.00
22930;BME280;11630;42.660;23.292;2023-05-11T03:23:19;68581.69;;;9.44;100.00
22930;BME280;11630;42.660;23.292;2023-05-11T03:25:50;68556.73;;;9.28;100.00
22930;BME280;11630;42.660;23.292;2023-05-11T03:28:22;68591.25;;;9.61;100.00
22930;BME280;11630;42.660;23.292;2023-05-11T03:30:53;68576.03;;;9.47;100.00
22930;BME280;11630;42.660;23.292;2023-05-11T03:33:24;68596.94;;;9.65;100.00
22930;BME280;11630;42.660;23.292;2023-05-11T03:35:56;68611.06;;;9.71;100.00
22930;BME280;11630;42.660;23.292;2023-05-11T03:38:28;68603.46;;;9.71;100.00
22930;BME280;11630;42.660;23.292;2023-05-11T03:40:59;68606.99;;;9.71;100.00
22930;BME280;11630;42.660;23.292;2023-05-11T03:43:30;68569.77;;;9.40;100.00
22930;BME280;11630;42.660;23.292;2023-05-11T03:46:05;68576.56;;;9.45;100.00
22930;BME280;11630;42.660;23.292;2023-05-11T03:48:38;68582.52;;;9.43;100.00
22930;BME280;11630;42.660;23.292;2023-05-11T03:51:10;68591.78;;;9.59;100.00
22930;BME280;11630;42.660;23.292;2023-05-11T03:53:41;68586.35;;;9.54;100.00
22930;BME280;11630;42.660;23.292;2023-05-11T03:56:12;68591.52;;;9.58;100.00
22930;BME280;11630;42.660;23.292;2023-05-11T03:58:42;68603.72;;;9.70;100.00
22930;BME280;11630;42.660;23.292;2023-05-11T04:01:14;68591.78;;;9.59;100.00
22930;BME280;11630;42.660;23.292;2023-05-11T04:03:48;68589.03;;;9.52;100.00
22930;BME280;11630;42.660;23.292;2023-05-11T04:06:19;68578.19;;;9.49;100.00
22930;BME280;11630;42.660;23.292;2023-05-11T04:08:50;68595.84;;;9.59;100.00
22930;BME280;11630;42.660;23.292;2023-05-11T04:11:23;68588.24;;;9.57;100.00
22930;BME280;11630;42.660;23.292;2023-05-11T04:13:54;68585.80;;;9.51;100.00
22930;BME280;11630;42.660;23.292;2023-05-11T04:16:25;68554.28;;;9.25;100.00
22930;BME280;11630;42.660;23.292;2023-05-11T04:18:56;68564.06;;;9.31;100.00
22930;BME280;11630;42.660;23.292;2023-05-11T04:21:27;68574.12;;;9.42;100.00
22930;BME280;11630;42.660;23.292;2023-05-11T04:23:58;68558.64;;;9.31;100.00
22930;BME280;11630;42.660;23.292;2023-05-11T04:26:29;68579.01;;;9.46;100.00
22930;BME280;11630;42.660;23.292;2023-05-11T04:29:00;68570.31;;;9.41;100.00
22930;BME280;11630;42.660;23.292;2023-05-11T04:31:31;68571.67;;;9.38;100.00
22930;BME280;11630;42.660;23.292;2023-05-11T04:34:04;68597.20;;;9.59;100.00
22930;BME280;11630;42.660;23.292;2023-05-11T04:36:33;68602.63;;;9.67;100.00
22930;BME280;11630;42.660;23.292;2023-05-11T04:39:04;68585.53;;;9.55;100.00
22930;BME280;11630;42.660;23.292;2023-05-11T04:41:35;68604.28;;;9.71;100.00
22930;BME280;11630;42.660;23.292;2023-05-11T04:44:06;68598.56;;;9.64;100.00
22930;BME280;11630;42.660;23.292;2023-05-11T04:46:37;68593.41;;;9.61;100.00
22930;BME280;11630;42.660;23.292;2023-05-11T04:49:08;68607.26;;;9.72;100.00
22930;BME280;11630;42.660;23.292;2023-05-11T04:51:39;68565.16;;;9.37;100.00
22930;BME280;11630;42.660;23.292;2023-05-11T04:54:10;68584.44;;;9.51;100.00
22930;BME280;11630;42.660;23.292;2023-05-11T04:56:41;68575.73;;;9.43;100.00
22930;BME280;11630;42.660;23.292;2023-05-11T04:59:12;68565.70;;;9.40;100.00
22930;BME280;11630;42.660;23.292;2023-05-11T05:01:43;68577.92;;;9.50;100.00
22930;BME280;11630;42.660;23.292;2023-05-11T05:04:14;68581.99;;;9.50;100.00
22930;BME280;11630;42.660;23.292;2023-05-11T05:06:46;68601.83;;;9.67;100.00
22930;BME280;11630;42.660;23.292;2023-05-11T05:09:16;68602.09;;;9.66;100.00
22930;BME280;11630;42.660;23.292;2023-05-11T05:11:46;68583.64;;;9.54;100.00
22930;BME280;11630;42.660;23.292;2023-05-11T05:14:17;68592.31;;;9.57;100.00
22930;BME280;11630;42.660;23.292;2023-05-11T05:16:48;68586.35;;;9.54;100.00
22930;BME280;11630;42.660;23.292;2023-05-11T05:19:19;68580.36;;;9.46;100.00
22930;BME280;11630;42.660;23.292;2023-05-11T05:21:49;68585.80;;;9.54;100.00
22930;BME280;11630;42.660;23.292;2023-05-11T05:24:20;68599.66;;;9.68;100.00
22930;BME280;11630;42.660;23.292;2023-05-11T05:26:51;68595.03;;;9.62;100.00
22930;BME280;11630;42.660;23.292;2023-05-11T05:29:21;68591.52;;;9.60;100.00
22930;BME280;11630;42.660;23.292;2023-05-11T05:31:52;68600.48;;;9.70;100.00
22930;BME280;11630;42.660;23.292;2023-05-11T05:34:23;68608.08;;;9.69;100.00
22930;BME280;11630;42.660;23.292;2023-05-11T05:36:54;68584.44;;;9.51;100.00
22930;BME280;11630;42.660;23.292;2023-05-11T05:39:25;68589.59;;;9.57;100.00
22930;BME280;11630;42.660;23.292;2023-05-11T05:41:55;68573.59;;;9.46;100.00
22930;BME280;11630;42.660;23.292;2023-05-11T05:44:26;68632.53;;;9.94;100.00
22930;BME280;11630;42.660;23.292;2023-05-11T05:46:57;68624.40;;;9.94;100.00
22930;BME280;11630;42.660;23.292;2023-05-11T05:49:28;68644.23;;;10.03;100.00
22930;BME280;11630;42.660;23.292;2023-05-11T05:51:59;68651.61;;;10.16;100.00
22930;BME280;11630;42.660;23.292;2023-05-11T05:54:30;68636.92;;;10.00;100.00
22930;BME280;11630;42.660;23.292;2023-05-11T05:57:00;68647.78;;;10.10;100.00
22930;BME280;11630;42.660;23.292;2023-05-11T05:59:31;68644.80;;;10.09;100.00
22930;BME280;11630;42.660;23.292;2023-05-11T06:02:02;68637.42;;;9.93;100.00
22930;BME280;11630;42.660;23.292;2023-05-11T06:04:33;68641.55;;;10.06;100.00
22930;BME280;11630;42.660;23.292;2023-05-11T06:07:04;68632.30;;;10.00;100.00
22930;BME280;11630;42.660;23.292;2023-05-11T06:09:35;68607.53;;;9.74;100.00
22930;BME280;11630;42.660;23.292;2023-05-11T06:12:06;68652.14;;;10.12;100.00
22930;BME280;11630;42.660;23.292;2023-05-11T06:14:37;68621.67;;;9.87;100.00
22930;BME280;11630;42.660;23.292;2023-05-11T06:17:08;68664.38;;;10.27;100.00
22930;BME280;11630;42.660;23.292;2023-05-11T06:19:38;68709.50;;;10.63;100.00
22930;BME280;11630;42.660;23.292;2023-05-11T06:22:09;68682.88;;;10.46;100.00
22930;BME280;11630;42.660;23.292;2023-05-11T06:24:40;68713.60;;;10.75;100.00
22930;BME280;11630;42.660;23.292;2023-05-11T06:27:11;68688.58;;;10.50;100.00
22930;BME280;11630;42.660;23.292;2023-05-11T06:29:42;68658.39;;;10.19;100.00
22930;BME280;11630;42.660;23.292;2023-05-11T06:32:13;68676.33;;;10.38;100.00
22930;BME280;11630;42.660;23.292;2023-05-11T06:34:44;68705.72;;;10.65;100.00
22930;BME280;11630;42.660;23.292;2023-05-11T06:37:16;68673.88;;;10.34;100.00
22930;BME280;11630;42.660;23.292;2023-05-11T06:39:49;68682.05;;;10.47;100.00
22930;BME280;11630;42.660;23.292;2023-05-11T06:42:20;68688.84;;;10.44;100.00
22930;BME280;11630;42.660;23.292;2023-05-11T06:44:50;68669.55;;;10.28;100.00
22930;BME280;11630;42.660;23.292;2023-05-11T06:47:20;68669.28;;;10.31;100.00
22930;BME280;11630;42.660;23.292;2023-05-11T06:49:52;68659.22;;;10.23;100.00
22930;BME280;11630;42.660;23.292;2023-05-11T06:52:23;68650.48;;;10.08;100.00
22930;BME280;11630;42.660;23.292;2023-05-11T06:54:53;68687.22;;;10.50;100.00
22930;BME280;11630;42.660;23.292;2023-05-11T06:57:24;68698.38;;;10.57;100.00
22930;BME280;11630;42.660;23.292;2023-05-11T06:59:55;68670.64;;;10.34;100.00
22930;BME280;11630;42.660;23.292;2023-05-11T07:02:26;68672.81;;;10.36;100.00
22930;BME280;11630;42.660;23.292;2023-05-11T07:04:57;68698.64;;;10.61;100.00
22930;BME280;11630;42.660;23.292;2023-05-11T07:07:28;68725.82;;;10.78;100.00
22930;BME280;11630;42.660;23.292;2023-05-11T07:09:59;68712.51;;;10.70;100.00
22930;BME280;11630;42.660;23.292;2023-05-11T07:12:30;68726.91;;;10.81;100.00
22930;BME280;11630;42.660;23.292;2023-05-11T07:15:01;68772.64;;;11.26;100.00
22930;BME280;11630;42.660;23.292;2023-05-11T07:17:31;68743.53;;;11.00;100.00
22930;BME280;11630;42.660;23.292;2023-05-11T07:20:02;68713.05;;;10.68;100.00
22930;BME280;11630;42.660;23.292;2023-05-11T07:22:33;68760.12;;;11.09;100.00
22930;BME280;11630;42.660;23.292;2023-05-11T07:25:05;68768.54;;;11.13;100.00
22930;BME280;11630;42.660;23.292;2023-05-11T07:27:36;68810.49;;;11.61;100.00
22930;BME280;11630;42.660;23.292;2023-05-11T07:30:08;68770.19;;;11.25;100.00
22930;BME280;11630;42.660;23.292;2023-05-11T07:32:39;68794.14;;;11.42;100.00
22930;BME280;11630;42.660;23.292;2023-05-11T07:35:12;68821.92;;;11.67;100.00
22930;BME280;11630;42.660;23.292;2023-05-11T07:37:43;68807.75;;;11.54;100.00
22930;BME280;11630;42.660;23.292;2023-05-11T07:40:14;68839.62;;;11.87;100.00
22930;BME280;11630;42.660;23.292;2023-05-11T07:42:44;68804.48;;;11.51;100.00
22930;BME280;11630;42.660;23.292;2023-05-11T07:45:14;68789.50;;;11.39;100.00
22930;BME280;11630;42.660;23.292;2023-05-11T07:47:45;68810.47;;;11.54;100.00
22930;BME280;11630;42.660;23.292;2023-05-11T07:50:16;68811.84;;;11.64;100.00
22930;BME280;11630;42.660;23.292;2023-05-11T07:52:45;68825.73;;;11.68;100.00
22930;BME280;11630;42.660;23.292;2023-05-11T07:55:17;68878.56;;;12.26;100.00
22930;BME280;11630;42.660;23.292;2023-05-11T07:57:48;68901.17;;;12.43;100.00
22930;BME280;11630;42.660;23.292;2023-05-11T08:00:19;68890.27;;;12.30;100.00
22930;BME280;11630;42.660;23.292;2023-05-11T08:02:50;68839.89;;;11.86;100.00
22930;BME280;11630;42.660;23.292;2023-05-11T08:05:21;68837.44;;;11.80;100.00
22930;BME280;11630;42.660;23.292;2023-05-11T08:07:52;68847.52;;;11.90;100.00
22930;BME280;11630;42.660;23.292;2023-05-11T08:10:23;68880.19;;;12.25;100.00
22930;BME280;11630;42.660;23.292;2023-05-11T08:12:54;68890.83;;;12.33;100.00
22930;BME280;11630;42.660;23.292;2023-05-11T08:15:25;68918.86;;;12.50;100.00
22930;BME280;11630;42.660;23.292;2023-05-11T08:17:56;68898.72;;;12.34;100.00
22930;BME280;11630;42.660;23.292;2023-05-11T08:20:27;68897.36;;;12.34;100.00
22930;BME280;11630;42.660;23.292;2023-05-11T08:23:01;68933.87;;;12.70;100.00
22930;BME280;11630;42.660;23.292;2023-05-11T08:25:30;68926.51;;;12.62;100.00
22930;BME280;11630;42.660;23.292;2023-05-11T08:28:02;68930.59;;;12.67;100.00
22930;BME280;11630;42.660;23.292;2023-05-11T08:30:32;68953.75;;;12.87;100.00
22930;BME280;11630;42.660;23.292;2023-05-11T08:33:03;68941.77;;;12.76;100.00
22930;BME280;11630;42.660;23.292;2023-05-11T08:35:34;68909.34;;;12.48;100.00
22930;BME280;11630;42.660;23.292;2023-05-11T08:38:06;68928.70;;;12.64;100.00
22930;BME280;11630;42.660;23.292;2023-05-11T08:40:37;68950.22;;;12.85;100.00
22930;BME280;11630;42.660;23.292;2023-05-11T08:43:09;68989.22;;;13.22;100.00
22930;BME280;11630;42.660;23.292;2023-05-11T08:45:43;69025.20;;;13.50;100.00
22930;BME280;11630;42.660;23.292;2023-05-11T08:48:13;68970.41;;;13.06;100.00
22930;BME280;11630;42.660;23.292;2023-05-11T08:50:46;69021.11;;;13.50;100.00
22930;BME280;11630;42.660;23.292;2023-05-11T08:53:17;69056.83;;;13.83;100.00
22930;BME280;11630;42.660;23.292;2023-05-11T08:55:53;69006.92;;;13.42;100.00
22930;BME280;11630;42.660;23.292;2023-05-11T08:58:24;69042.92;;;13.70;100.00
22930;BME280;11630;42.660;23.292;2023-05-11T09:00:58;69027.38;;;13.57;100.00
22930;BME280;11630;42.660;23.292;2023-05-11T09:03:33;69020.84;;;13.51;100.00
22930;BME280;11630;42.660;23.292;2023-05-11T09:06:04;69038.29;;;13.69;100.00
22930;BME280;11630;42.660;23.292;2023-05-11T09:08:36;69032.55;;;13.63;100.00
22930;BME280;11630;42.660;23.292;2023-05-11T09:11:06;69061.20;;;13.90;100.00
22930;BME280;11630;42.660;23.292;2023-05-11T09:13:36;69009.39;;;13.38;100.00
22930;BME280;11630;42.660;23.292;2023-05-11T09:16:07;69009.39;;;13.38;100.00
22930;BME280;11630;42.660;23.292;2023-05-11T09:18:51;68972.59;;;13.08;100.00
22930;BME280;11630;42.660;23.292;2023-05-11T09:21:23;68929.50;;;12.66;100.00
22930;BME280;11630;42.660;23.292;2023-05-11T09:23:55;68945.57;;;12.87;100.00
22930;BME280;11630;42.660;23.292;2023-05-11T09:26:29;69019.20;;;13.47;100.00
22930;BME280;11630;42.660;23.292;2023-05-11T09:28:59;69037.75;;;13.64;100.00
22930;BME280;11630;42.660;23.292;2023-05-11T09:31:44;69025.47;;;13.54;100.00
22930;BME280;11630;42.660;23.292;2023-05-11T09:34:18;68978.05;;;13.08;100.00
22930;BME280;11630;42.660;23.292;2023-05-11T09:36:50;68969.05;;;13.06;100.00
22930;BME280;11630;42.660;23.292;2023-05-11T09:39:33;69006.38;;;13.34;100.00
22930;BME280;11630;42.660;23.292;2023-05-11T09:42:22;69030.39;;;13.51;100.00
22930;BME280;11630;42.660;23.292;2023-05-11T09:44:50;69015.92;;;13.49;100.00
22930;BME280;11630;42.660;23.292;2023-05-11T09:47:21;69081.13;;;14.04;100.00
22930;BME280;11630;42.660;23.292;2023-05-11T09:49:52;69029.02;;;13.56;100.00
22930;BME280;11630;42.660;23.292;2023-05-11T09:52:23;68982.13;;;13.13;100.00
22930;BME280;11630;42.660;23.292;2023-05-11T09:54:54;68982.39;;;13.14;100.00
22930;BME280;11630;42.660;23.292;2023-05-11T09:57:29;68997.13;;;13.25;100.00
22930;BME280;11630;42.660;23.292;2023-05-11T10:00:00;69064.47;;;13.85;100.00
22930;BME280;11630;42.660;23.292;2023-05-11T10:02:33;69054.10;;;13.81;100.00
22930;BME280;11630;42.660;23.292;2023-05-11T10:05:13;69060.37;;;13.90;100.00
22930;BME280;11630;42.660;23.292;2023-05-11T10:07:36;69033.64;;;13.69;100.00
22930;BME280;11630;42.660;23.292;2023-05-11T10:10:07;69032.02;;;13.55;100.00
22930;BME280;11630;42.660;23.292;2023-05-11T10:12:37;69017.83;;;13.47;100.00
22930;BME280;11630;42.660;23.292;2023-05-11T10:15:09;69053.55;;;13.76;100.00
22930;BME280;11630;42.660;23.292;2023-05-11T10:17:42;69075.66;;;14.04;100.00
22930;BME280;11630;42.660;23.292;2023-05-11T10:20:15;69055.20;;;13.80;100.00
22930;BME280;11630;42.660;23.292;2023-05-11T10:22:49;69073.47;;;13.97;100.00
22930;BME280;11630;42.660;23.292;2023-05-11T10:25:24;69123.97;;;14.42;100.00
22930;BME280;11630;42.660;23.292;2023-05-11T10:27:56;69053.58;;;13.78;100.00
22930;BME280;11630;42.660;23.292;2023-05-11T10:30:28;69040.47;;;13.64;100.00
22930;BME280;11630;42.660;23.292;2023-05-11T10:33:00;69076.46;;;14.06;100.00
22930;BME280;11630;42.660;23.292;2023-05-11T10:35:31;69096.41;;;14.13;100.00
22930;BME280;11630;42.660;23.292;2023-05-11T10:38:01;69128.60;;;14.50;100.00
22930;BME280;11630;42.660;23.292;2023-05-11T10:40:36;69191.39;;;15.05;99.41
22930;BME280;11630;42.660;23.292;2023-05-11T10:43:17;69193.31;;;15.03;97.81
22930;BME280;11630;42.660;23.292;2023-05-11T10:45:50;69173.09;;;14.89;97.59
22930;BME280;11630;42.660;23.292;2023-05-11T10:56:57;69177.19;;;14.89;97.39
22930;BME280;11630;42.660;23.292;2023-05-11T10:59:48;69129.70;;;14.49;98.78
22930;BME280;11630;42.660;23.292;2023-05-11T11:02:15;69157.28;;;14.72;98.51
22930;BME280;11630;42.660;23.292;2023-05-11T11:04:49;69131.33;;;14.50;99.04
22930;BME280;11630;42.660;23.292;2023-05-11T11:07:20;69145.54;;;14.63;97.76
22930;BME280;11630;42.660;23.292;2023-05-11T11:09:55;69150.19;;;14.61;98.33
22930;BME280;11630;42.660;23.292;2023-05-11T11:12:26;69132.70;;;14.55;98.95
22930;BME280;11630;42.660;23.292;2023-05-11T11:15:03;69111.70;;;14.32;97.81
22930;BME280;11630;42.660;23.292;2023-05-11T11:17:34;69089.05;;;14.10;98.60
22930;BME280;11630;42.660;23.292;2023-05-11T11:20:07;69119.34;;;14.37;98.85
22930;BME280;11630;42.660;23.292;2023-05-11T11:22:42;69114.14;;;14.31;99.20
22930;BME280;11630;42.660;23.292;2023-05-11T11:25:14;69123.15;;;14.45;98.81
22930;BME280;11630;42.660;23.292;2023-05-11T11:30:22;69118.51;;;14.40;98.51
22930;BME280;11630;42.660;23.292;2023-05-11T11:38:17;69091.23;;;14.17;99.35
22930;BME280;11630;42.660;23.292;2023-05-11T11:40:50;69155.63;;;14.76;97.02
22930;BME280;11630;42.660;23.292;2023-05-11T11:43:26;69186.22;;;14.99;96.84
22930;BME280;11630;42.660;23.292;2023-05-11T11:46:02;69155.36;;;14.74;95.99
22930;BME280;11630;42.660;23.292;2023-05-11T11:48:36;69167.91;;;14.86;96.54
22930;BME280;11630;42.660;23.292;2023-05-11T11:51:10;69046.73;;;13.73;99.99
22930;BME280;11630;42.660;23.292;2023-05-11T11:59:00;69146.64;;;14.54;98.78
22930;BME280;11630;42.660;23.292;2023-05-11T12:01:38;69166.27;;;14.84;97.09
22930;BME280;11630;42.660;23.292;2023-05-11T12:04:32;69123.44;;;14.39;97.90
22930;BME280;11630;42.660;23.292;2023-05-11T12:07:02;69100.77;;;14.22;97.99
22930;BME280;11630;42.660;23.292;2023-05-11T12:09:34;69126.70;;;14.42;97.62
22930;BME280;11630;42.660;23.292;2023-05-11T12:12:05;69096.69;;;14.17;99.24
22930;BME280;11630;42.660;23.292;2023-05-11T12:14:38;69050.58;;;13.67;100.00
22930;BME280;11630;42.660;23.292;2023-05-11T12:17:09;69063.39;;;13.89;100.00
22930;BME280;11630;42.660;23.292;2023-05-11T12:19:43;69088.48;;;14.05;100.00
22930;BME280;11630;42.660;23.292;2023-05-11T12:22:13;69048.66;;;13.76;100.00
22930;BME280;11630;42.660;23.292;2023-05-11T12:24:44;69047.56;;;13.75;100.00
22930;BME280;11630;42.660;23.292;2023-05-11T12:27:18;69024.92;;;13.56;100.00
22930;BME280;11630;42.660;23.292;2023-05-11T12:29:51;69033.66;;;13.64;100.00
22930;BME280;11630;42.660;23.292;2023-05-11T12:32:31;69101.33;;;14.23;100.00
22930;BME280;11630;42.660;23.292;2023-05-11T12:35:04;69079.75;;;14.07;100.00
22930;BME280;11630;42.660;23.292;2023-05-11T12:37:35;69114.14;;;14.31;99.99
22930;BME280;11630;42.660;23.292;2023-05-11T12:40:12;69082.49;;;14.12;100.00
22930;BME280;11630;42.660;23.292;2023-05-11T12:42:48;69075.66;;;13.99;100.00
22930;BME280;11630;42.660;23.292;2023-05-11T12:45:12;69052.20;;;13.73;100.00
22930;BME280;11630;42.660;23.292;2023-05-11T12:47:43;69089.03;;;14.08;100.00
22930;BME280;11630;42.660;23.292;2023-05-11T12:50:13;69079.74;;;14.02;100.00
22930;BME280;11630;42.660;23.292;2023-05-11T12:52:46;69023.84;;;13.50;100.00
22930;BME280;11630;42.660;23.292;2023-05-11T12:55:27;69033.39;;;13.60;100.00
22930;BME280;11630;42.660;23.292;2023-05-11T12:58:14;69048.93;;;13.73;100.00
22930;BME280;11630;42.660;23.292;2023-05-11T13:00:59;69016.73;;;13.46;100.00
22930;BME280;11630;42.660;23.292;2023-05-11T13:03:32;69009.92;;;13.41;100.00
22930;BME280;11630;42.660;23.292;2023-05-11T13:06:10;68980.75;;;13.18;100.00
22930;BME280;11630;42.660;23.292;2023-05-11T13:08:43;68991.94;;;13.22;100.00
22930;BME280;11630;42.660;23.292;2023-05-11T13:11:24;69003.66;;;13.29;100.00
22930;BME280;11630;42.660;23.292;2023-05-11T13:13:55;68969.31;;;13.05;100.00
22930;BME280;11630;42.660;23.292;2023-05-11T13:16:30;69001.20;;;13.33;100.00
22930;BME280;11630;42.660;23.292;2023-05-11T13:19:02;68976.95;;;13.09;100.00
22930;BME280;11630;42.660;23.292;2023-05-11T13:21:34;68972.04;;;13.05;100.00
22930;BME280;11630;42.660;23.292;2023-05-11T13:24:05;68973.68;;;13.11;100.00
22930;BME280;11630;42.660;23.292;2023-05-11T13:26:36;68994.12;;;13.19;100.00
22930;BME280;11630;42.660;23.292;2023-05-11T13:29:07;68976.95;;;13.07;100.00
22930;BME280;11630;42.660;23.292;2023-05-11T13:31:45;68993.30;;;13.22;100.00
22930;BME280;11630;42.660;23.292;2023-05-11T13:34:15;68986.77;;;13.18;100.00
22930;BME280;11630;42.660;23.292;2023-05-11T13:36:45;69002.85;;;13.34;100.00